createdAt,value
2022-10-28T00:00:32.249Z,14.15
2022-10-28T00:03:02.143Z,14.18
2022-10-28T00:05:33.419Z,14.15
2022-10-28T00:08:02.311Z,14.17
2022-10-28T00:10:29.482Z,14.14
2022-10-28T00:12:56.291Z,14.13
2022-10-28T00:15:23.064Z,14.11
2022-10-28T00:17:49.862Z,13.96
2022-10-28T00:20:16.901Z,14.00
2022-10-28T00:22:43.868Z,13.95
2022-10-28T00:25:10.708Z,13.97
2022-10-28T00:27:37.460Z,13.98
2022-10-28T00:30:07.838Z,13.91
2022-10-28T00:32:34.597Z,13.95
2022-10-28T00:35:01.277Z,13.91
2022-10-28T00:37:27.942Z,13.90
2022-10-28T00:39:54.705Z,13.82
2022-10-28T00:42:22.368Z,13.84
2022-10-28T00:44:59.509Z,13.75
2022-10-28T00:47:29.149Z,13.71
2022-10-28T00:50:14.048Z,13.69
2022-10-28T00:52:41.573Z,13.68
2022-10-28T00:55:09.021Z,13.73
2022-10-28T00:57:38.064Z,13.68
2022-10-28T01:00:07.086Z,13.64
2022-10-28T01:02:40.686Z,13.67
2022-10-28T01:05:08.030Z,13.67
2022-10-28T01:07:34.989Z,13.58
2022-10-28T01:10:01.892Z,13.55
2022-10-28T01:12:41.099Z,13.56
2022-10-28T01:15:33.090Z,13.62
2022-10-28T01:18:17.794Z,13.62
2022-10-28T01:20:57.813Z,13.52
2022-10-28T01:23:24.573Z,13.49
2022-10-28T01:26:06.726Z,13.45
2022-10-28T01:28:56.490Z,13.47
2022-10-28T01:31:48.314Z,13.49
2022-10-28T01:34:40.428Z,13.41
2022-10-28T01:37:33.098Z,13.38
2022-10-28T01:40:07.762Z,13.38
2022-10-28T01:42:50.755Z,13.32
2022-10-28T01:45:35.811Z,13.32
2022-10-28T01:48:31.783Z,13.35
2022-10-28T01:51:21.329Z,13.47
2022-10-28T01:53:53.737Z,13.52
2022-10-28T01:56:28.911Z,13.61
2022-10-28T01:58:57.797Z,13.68
2022-10-28T02:01:26.353Z,13.68
2022-10-28T02:03:54.596Z,13.71
2022-10-28T02:06:24.216Z,13.76
2022-10-28T02:09:00.047Z,13.74
2022-10-28T02:11:44.972Z,13.70
2022-10-28T02:14:28.487Z,13.69
2022-10-28T02:17:05.136Z,13.76
2022-10-28T02:19:57.790Z,13.71
2022-10-28T02:22:41.387Z,13.77
2022-10-28T02:25:22.056Z,13.76
2022-10-28T02:27:59.085Z,13.79
2022-10-28T02:30:34.743Z,13.73
2022-10-28T02:33:05.332Z,13.77
2022-10-28T02:35:38.718Z,13.78
2022-10-28T02:38:14.751Z,13.81
2022-10-28T02:40:45.759Z,13.86
2022-10-28T02:43:15.751Z,13.95
2022-10-28T02:45:46.822Z,13.89
2022-10-28T02:48:20.120Z,13.97
2022-10-28T02:50:55.679Z,13.96
2022-10-28T02:53:31.888Z,13.92
2022-10-28T02:56:02.018Z,13.96
2022-10-28T02:58:29.823Z,13.99
2022-10-28T03:00:56.491Z,13.99
2022-10-28T03:03:25.453Z,13.98
2022-10-28T03:05:52.122Z,14.01
2022-10-28T03:08:18.811Z,13.96
2022-10-28T03:10:45.625Z,14.01
2022-10-28T03:13:12.283Z,14.09
2022-10-28T03:15:39.036Z,14.06
2022-10-28T03:18:05.739Z,13.99
2022-10-28T03:20:32.506Z,14.07
2022-10-28T03:22:59.262Z,14.08
2022-10-28T03:25:25.958Z,14.05
2022-10-28T03:27:52.678Z,14.07
2022-10-28T03:30:19.466Z,14.05
2022-10-28T03:32:46.195Z,14.09
2022-10-28T03:35:13.789Z,14.04
2022-10-28T03:37:44.375Z,13.99
2022-10-28T03:40:12.103Z,14.00
2022-10-28T03:42:41.538Z,13.89
2022-10-28T03:45:09.319Z,13.91
2022-10-28T03:47:36.326Z,13.89
2022-10-28T03:50:03.192Z,13.89
2022-10-28T03:52:29.848Z,13.91
2022-10-28T03:54:56.561Z,13.88
2022-10-28T03:57:23.335Z,13.88
2022-10-28T03:59:50.051Z,13.88
2022-10-28T04:02:16.820Z,13.90
2022-10-28T04:04:43.559Z,13.82
2022-10-28T04:07:10.179Z,13.77
2022-10-28T04:09:36.836Z,13.73
2022-10-28T04:14:35.259Z,13.64
2022-10-28T04:17:01.934Z,13.56
2022-10-28T04:19:28.627Z,13.51
2022-10-28T04:21:55.303Z,13.48
2022-10-28T04:24:22.011Z,13.48
2022-10-28T04:26:48.783Z,13.47
2022-10-28T04:29:15.625Z,13.48
2022-10-28T04:31:42.405Z,13.40
2022-10-28T04:34:09.194Z,13.38
2022-10-28T04:36:35.830Z,13.23
2022-10-28T04:39:02.570Z,13.21
2022-10-28T04:41:29.241Z,13.16
2022-10-28T04:43:56.428Z,13.15
2022-10-28T04:46:23.117Z,13.16
2022-10-28T04:48:49.790Z,13.16
2022-10-28T04:51:16.479Z,13.22
2022-10-28T04:53:43.170Z,13.23
2022-10-28T04:56:10.136Z,13.21
2022-10-28T04:58:36.807Z,13.18
2022-10-28T05:01:07.971Z,13.18
2022-10-28T05:03:34.924Z,13.18
2022-10-28T05:06:02.096Z,13.06
2022-10-28T05:08:28.839Z,13.05
2022-10-28T05:10:55.903Z,13.07
2022-10-28T05:13:22.825Z,13.01
2022-10-28T05:15:50.089Z,13.03
2022-10-28T05:18:17.070Z,13.01
2022-10-28T05:20:44.544Z,13.02
2022-10-28T05:23:12.281Z,12.94
2022-10-28T05:25:39.171Z,12.91
2022-10-28T05:28:06.162Z,12.95
2022-10-28T05:30:33.076Z,12.87
2022-10-28T05:33:03.324Z,12.88
2022-10-28T05:35:31.058Z,12.94
2022-10-28T05:37:57.980Z,12.95
2022-10-28T05:40:25.037Z,13.05
2022-10-28T05:42:52.172Z,12.94
2022-10-28T05:45:19.504Z,13.03
2022-10-28T05:47:48.644Z,13.05
2022-10-28T05:50:17.386Z,13.11
2022-10-28T05:52:52.675Z,13.20
2022-10-28T05:55:21.423Z,13.09
2022-10-28T05:57:49.666Z,13.10
2022-10-28T06:00:18.838Z,13.15
2022-10-28T06:02:46.131Z,13.10
2022-10-28T06:05:14.304Z,13.17
2022-10-28T06:07:41.883Z,13.09
2022-10-28T06:10:10.686Z,13.12
2022-10-28T06:12:36.229Z,13.23
2022-10-28T06:15:03.469Z,13.17
2022-10-28T06:17:30.102Z,13.23
2022-10-28T06:19:56.781Z,13.30
2022-10-28T06:22:23.514Z,13.30
2022-10-28T06:24:50.236Z,13.34
2022-10-28T06:27:16.934Z,13.33
2022-10-28T06:29:43.707Z,13.35
2022-10-28T06:32:10.400Z,13.37
2022-10-28T06:34:37.824Z,13.41
2022-10-28T06:37:05.644Z,13.46
2022-10-28T06:39:33.119Z,13.49
2022-10-28T06:41:59.847Z,13.58
2022-10-28T06:44:26.504Z,13.60
2022-10-28T06:46:58.611Z,13.62
2022-10-28T06:49:25.315Z,13.70
2022-10-28T06:51:52.049Z,13.71
2022-10-28T06:54:18.745Z,13.75
2022-10-28T06:56:47.407Z,13.79
2022-10-28T06:59:14.193Z,13.78
2022-10-28T07:01:41.146Z,13.85
2022-10-28T07:04:12.113Z,13.81
2022-10-28T07:06:39.959Z,13.84
2022-10-28T07:09:07.275Z,13.92
2022-10-28T07:11:34.004Z,13.94
2022-10-28T07:14:00.695Z,14.08
2022-10-28T07:16:27.423Z,14.13
2022-10-28T07:18:54.127Z,14.13
2022-10-28T07:21:24.408Z,14.21
2022-10-28T07:23:51.117Z,14.18
2022-10-28T07:26:17.878Z,14.21
2022-10-28T07:28:44.642Z,14.34
2022-10-28T07:33:44.618Z,14.45
2022-10-28T07:36:11.826Z,14.71
2022-10-28T07:38:38.465Z,14.74
2022-10-28T07:41:06.898Z,14.87
2022-10-28T07:43:37.511Z,14.98
2022-10-28T07:46:06.510Z,15.04
2022-10-28T07:48:36.530Z,15.06
2022-10-28T07:51:05.578Z,15.07
2022-10-28T07:53:32.796Z,15.13
2022-10-28T07:56:03.025Z,15.27
2022-10-28T07:58:30.272Z,15.37
2022-10-28T08:01:01.619Z,15.61
2022-10-28T08:03:34.668Z,15.77
2022-10-28T08:06:17.301Z,16.05
2022-10-28T08:08:48.735Z,16.41
2022-10-28T08:11:19.059Z,16.42
2022-10-28T08:13:47.189Z,16.49
2022-10-28T08:16:14.858Z,16.61
2022-10-28T08:18:41.583Z,16.43
2022-10-28T08:21:10.373Z,16.49
2022-10-28T08:23:38.354Z,16.84
2022-10-28T08:26:05.658Z,17.06
2022-10-28T08:28:32.529Z,16.71
2022-10-28T08:31:08.740Z,16.70
2022-10-28T08:33:38.216Z,16.31
2022-10-28T08:36:05.816Z,16.45
2022-10-28T08:38:32.590Z,16.66
2022-10-28T08:41:15.858Z,16.59
2022-10-28T08:44:03.310Z,16.56
2022-10-28T08:47:07.258Z,16.36
2022-10-28T08:49:39.090Z,16.46
2022-10-28T08:52:18.022Z,16.37
2022-10-28T08:54:55.380Z,16.39
2022-10-28T08:58:00.979Z,16.49
2022-10-28T09:00:30.631Z,16.64
2022-10-28T09:03:13.162Z,16.77
2022-10-28T09:05:42.984Z,17.07
2022-10-28T09:08:31.722Z,18.05
2022-10-28T09:11:10.633Z,18.82
2022-10-28T09:13:59.478Z,19.52
2022-10-28T09:16:47.731Z,20.19
2022-10-28T09:19:42.380Z,20.07
2022-10-28T09:22:19.936Z,20.09
2022-10-28T09:25:17.664Z,20.35
2022-10-28T09:27:49.793Z,20.62
2022-10-28T09:30:28.412Z,20.53
2022-10-28T09:33:02.914Z,20.63
2022-10-28T09:35:33.877Z,20.66
2022-10-28T09:38:25.188Z,20.42
2022-10-28T09:40:58.308Z,20.55
2022-10-28T09:43:33.888Z,20.36
2022-10-28T09:46:22.094Z,20.59
2022-10-28T09:48:52.100Z,20.66
2022-10-28T09:51:47.657Z,20.96
2022-10-28T09:54:14.479Z,20.95
2022-10-28T09:56:41.774Z,20.95
2022-10-28T09:59:13.317Z,21.02
2022-10-28T10:01:42.076Z,20.80
2022-10-28T10:04:29.061Z,20.20
2022-10-28T10:07:00.389Z,20.56
2022-10-28T10:09:30.193Z,20.60
2022-10-28T10:12:02.447Z,20.70
2022-10-28T10:14:50.657Z,20.87
2022-10-28T10:17:25.691Z,20.54
2022-10-28T10:20:03.201Z,20.55
2022-10-28T10:22:31.147Z,20.81
2022-10-28T10:24:58.013Z,20.78
2022-10-28T10:27:26.305Z,20.70
2022-10-28T10:29:54.333Z,20.79
2022-10-28T10:32:34.066Z,21.19
2022-10-28T10:35:16.777Z,21.35
2022-10-28T10:37:46.999Z,21.53
2022-10-28T10:40:27.655Z,21.95
2022-10-28T10:43:10.065Z,22.17
2022-10-28T10:45:40.517Z,22.41
2022-10-28T10:48:15.268Z,22.95
2022-10-28T10:50:49.633Z,23.09
2022-10-28T10:53:31.318Z,23.06
2022-10-28T10:56:01.871Z,23.30
2022-10-28T10:58:32.338Z,23.08
2022-10-28T11:01:02.589Z,23.18
2022-10-28T11:03:31.829Z,24.03
2022-10-28T11:06:22.080Z,24.18
2022-10-28T11:08:47.765Z,23.15
2022-10-28T11:11:20.173Z,23.05
2022-10-28T11:13:49.160Z,23.74
2022-10-28T11:16:24.730Z,24.58
2022-10-28T11:18:53.163Z,24.41
2022-10-28T11:21:42.930Z,24.46
2022-10-28T11:24:21.660Z,24.55
2022-10-28T11:27:17.565Z,23.99
2022-10-28T11:29:44.817Z,24.17
2022-10-28T11:32:27.521Z,24.98
2022-10-28T11:35:11.128Z,24.78
2022-10-28T11:37:49.964Z,24.79
2022-10-28T11:40:43.507Z,24.36
2022-10-28T11:43:31.327Z,23.84
2022-10-28T11:46:35.174Z,24.57
2022-10-28T11:49:39.645Z,24.62
2022-10-28T11:52:27.569Z,23.92
2022-10-28T11:55:31.742Z,23.57
2022-10-28T11:58:31.315Z,23.94
2022-10-28T12:01:13.823Z,23.25
2022-10-28T12:03:43.701Z,23.18
2022-10-28T12:06:17.953Z,23.36
2022-10-28T12:09:02.882Z,23.61
2022-10-28T12:11:39.676Z,23.11
2022-10-28T12:14:41.362Z,23.39
2022-10-28T12:17:12.793Z,23.31
2022-10-28T12:19:47.328Z,23.20
2022-10-28T12:22:27.619Z,22.95
2022-10-28T12:24:56.602Z,23.07
2022-10-28T12:27:30.982Z,23.07
2022-10-28T12:30:03.154Z,23.05
2022-10-28T12:32:34.319Z,22.99
2022-10-28T12:35:21.662Z,23.14
2022-10-28T12:38:06.844Z,22.80
2022-10-28T12:40:45.973Z,22.97
2022-10-28T12:43:25.327Z,22.53
2022-10-28T12:45:56.168Z,22.41
2022-10-28T12:48:39.977Z,22.41
2022-10-28T12:51:19.433Z,22.69
2022-10-28T12:53:53.989Z,22.52
2022-10-28T12:56:37.083Z,22.42
2022-10-28T12:59:11.629Z,22.65
2022-10-28T13:01:38.821Z,22.53
2022-10-28T13:04:05.884Z,22.28
2022-10-28T13:09:27.779Z,22.26
2022-10-28T13:12:09.515Z,22.52
2022-10-28T13:14:39.145Z,22.39
2022-10-28T13:17:14.928Z,22.41
2022-10-28T13:19:55.037Z,22.27
2022-10-28T13:22:32.075Z,22.56
2022-10-28T13:25:24.720Z,22.40
2022-10-28T13:27:59.269Z,22.34
2022-10-28T13:30:27.091Z,22.20
2022-10-28T13:33:14.432Z,22.27
2022-10-28T13:35:41.859Z,22.39
2022-10-28T13:38:11.868Z,22.44
2022-10-28T13:40:38.457Z,22.49
2022-10-28T13:43:05.264Z,22.62
2022-10-28T13:45:48.182Z,22.57
2022-10-28T13:48:45.783Z,22.71
2022-10-28T13:51:12.335Z,22.76
2022-10-28T13:53:44.969Z,22.80
2022-10-28T13:56:28.593Z,22.60
2022-10-28T13:58:59.472Z,22.75
2022-10-28T14:02:01.585Z,22.62
2022-10-28T14:04:42.385Z,22.67
2022-10-28T14:07:12.566Z,22.60
2022-10-28T14:09:41.421Z,22.22
2022-10-28T14:12:21.318Z,22.08
2022-10-28T14:15:14.075Z,21.97
2022-10-28T14:21:05.643Z,21.67
2022-10-28T14:23:32.345Z,21.76
2022-10-28T14:26:04.736Z,21.72
2022-10-28T14:28:31.630Z,21.58
2022-10-28T14:31:14.511Z,21.46
2022-10-28T14:33:44.419Z,21.23
2022-10-28T14:36:17.194Z,21.10
2022-10-28T14:39:21.098Z,20.91
2022-10-28T14:42:14.495Z,20.75
2022-10-28T14:44:50.555Z,20.65
2022-10-28T14:47:41.947Z,20.48
2022-10-28T14:50:11.661Z,20.42
2022-10-28T14:52:38.595Z,20.25
2022-10-28T14:55:21.342Z,20.28
2022-10-28T14:57:48.169Z,20.03
2022-10-28T15:00:20.026Z,20.06
2022-10-28T15:02:47.180Z,19.83
2022-10-28T15:05:22.173Z,19.72
2022-10-28T15:07:49.101Z,19.77
2022-10-28T15:10:18.931Z,19.71
2022-10-28T15:12:48.941Z,19.56
2022-10-28T15:15:29.887Z,19.41
2022-10-28T15:17:57.915Z,19.41
2022-10-28T15:20:34.462Z,19.28
2022-10-28T15:23:22.301Z,19.21
2022-10-28T15:26:11.605Z,18.99
2022-10-28T15:28:39.916Z,18.88
2022-10-28T15:31:07.447Z,18.94
2022-10-28T15:33:39.819Z,18.83
2022-10-28T15:36:18.295Z,18.64
2022-10-28T15:39:05.236Z,18.53
2022-10-28T15:41:53.755Z,18.34
2022-10-28T15:44:39.296Z,18.06
2022-10-28T15:47:21.910Z,18.19
2022-10-28T15:50:18.310Z,18.14
2022-10-28T15:52:50.228Z,18.02
2022-10-28T15:55:21.777Z,17.99
2022-10-28T15:57:56.295Z,17.91
2022-10-28T16:00:28.967Z,17.91
2022-10-28T16:02:57.271Z,17.76
2022-10-28T16:05:33.284Z,17.63
2022-10-28T16:08:43.585Z,17.60
2022-10-28T16:11:20.099Z,17.45
2022-10-28T16:13:49.072Z,17.26
2022-10-28T16:16:24.609Z,17.23
2022-10-28T16:19:08.599Z,17.20
2022-10-28T16:21:37.148Z,17.14
2022-10-28T16:24:04.175Z,17.19
2022-10-28T16:26:33.066Z,17.17
2022-10-28T16:28:59.912Z,17.19
2022-10-28T16:31:29.228Z,17.13
2022-10-28T16:33:58.179Z,17.02
2022-10-28T16:36:26.183Z,16.90
2022-10-28T16:38:52.890Z,16.78
2022-10-28T16:41:20.109Z,16.84
2022-10-28T16:43:47.074Z,16.81
2022-10-28T16:46:14.427Z,16.74
2022-10-28T16:48:41.491Z,16.78
2022-10-28T16:51:17.499Z,16.79
2022-10-28T16:53:47.240Z,16.82
2022-10-28T16:56:18.165Z,16.78
2022-10-28T16:58:45.519Z,16.79
2022-10-28T17:01:17.428Z,16.81
2022-10-28T17:03:44.243Z,16.74
2022-10-28T17:06:10.916Z,16.69
2022-10-28T17:09:01.141Z,16.67
2022-10-28T17:11:24.455Z,16.84
2022-10-28T17:13:51.160Z,16.63
2022-10-28T17:16:17.975Z,16.74
2022-10-28T17:18:44.867Z,16.69
2022-10-28T17:21:11.511Z,16.81
2022-10-28T17:23:39.581Z,16.82
2022-10-28T17:26:06.332Z,16.79
2022-10-28T17:28:33.054Z,16.91
2022-10-28T17:31:07.765Z,16.96
2022-10-28T17:33:35.230Z,16.96
2022-10-28T17:36:06.440Z,16.86
2022-10-28T17:38:33.216Z,16.86
2022-10-28T17:40:59.944Z,16.82
2022-10-28T17:43:27.049Z,16.79
2022-10-28T17:46:03.223Z,16.62
2022-10-28T17:48:30.317Z,16.66
2022-10-28T17:50:57.043Z,16.60
2022-10-28T17:53:23.719Z,16.62
2022-10-28T17:56:01.863Z,16.67
2022-10-28T17:58:29.507Z,16.59
2022-10-28T18:01:01.762Z,16.51
2022-10-28T18:03:32.719Z,16.45
2022-10-28T18:06:03.529Z,16.45
2022-10-28T18:08:38.968Z,16.44
2022-10-28T18:11:07.749Z,16.41
2022-10-28T18:13:36.802Z,16.46
2022-10-28T18:16:08.705Z,16.50
2022-10-28T18:18:40.980Z,16.54
2022-10-28T18:21:11.007Z,16.49
2022-10-28T18:23:38.025Z,16.56
2022-10-28T18:26:07.264Z,16.58
2022-10-28T18:28:35.976Z,16.64
2022-10-28T18:31:07.528Z,16.57
2022-10-28T18:33:34.802Z,16.56
2022-10-28T18:36:03.888Z,16.37
2022-10-28T18:38:30.879Z,16.42
2022-10-28T18:40:57.762Z,16.36
2022-10-28T18:43:24.896Z,16.40
2022-10-28T18:45:51.824Z,16.37
2022-10-28T18:48:18.751Z,16.37
2022-10-28T18:50:56.646Z,16.44
2022-10-28T18:53:23.789Z,16.35
2022-10-28T18:55:50.603Z,16.33
2022-10-28T18:58:17.953Z,16.32
2022-10-28T19:00:44.676Z,16.25
2022-10-28T19:03:22.915Z,16.20
2022-10-28T19:05:49.620Z,16.10
2022-10-28T19:08:16.292Z,16.04
2022-10-28T19:10:43.060Z,16.11
2022-10-28T19:13:09.884Z,16.16
2022-10-28T19:15:41.999Z,16.19
2022-10-28T19:18:08.759Z,16.24
2022-10-28T19:20:35.475Z,16.19
2022-10-28T19:23:02.201Z,16.22
2022-10-28T19:25:28.953Z,16.18
2022-10-28T19:27:55.761Z,16.14
2022-10-28T19:30:22.401Z,16.03
2022-10-28T19:32:48.986Z,16.07
2022-10-28T19:35:16.023Z,16.01
2022-10-28T19:37:42.773Z,16.01
2022-10-28T19:40:09.821Z,16.07
2022-10-28T19:42:38.646Z,16.07
2022-10-28T19:45:06.244Z,16.15
2022-10-28T19:47:33.162Z,16.43
2022-10-28T19:49:59.851Z,16.49
2022-10-28T19:52:26.688Z,16.67
2022-10-28T19:54:53.317Z,16.69
2022-10-28T19:57:20.014Z,16.81
2022-10-28T19:59:46.708Z,16.85
2022-10-28T20:02:13.619Z,17.01
2022-10-28T20:04:40.332Z,17.23
2022-10-28T20:07:07.097Z,17.19
2022-10-28T20:09:33.883Z,17.28
2022-10-28T20:12:01.875Z,17.39
2022-10-28T20:14:28.998Z,17.46
2022-10-28T20:16:55.790Z,17.49
2022-10-28T20:19:22.884Z,17.62
2022-10-28T20:21:50.791Z,17.62
2022-10-28T20:24:17.502Z,17.61
2022-10-28T20:26:44.267Z,17.73
2022-10-28T20:29:10.942Z,17.68
2022-10-28T20:31:41.067Z,17.70
2022-10-28T20:34:08.465Z,17.77
2022-10-28T20:36:40.338Z,17.84
2022-10-28T20:39:13.770Z,17.88
2022-10-28T20:41:42.064Z,17.87
2022-10-28T20:44:09.535Z,17.84
2022-10-28T20:46:36.557Z,17.79
2022-10-28T20:49:05.513Z,17.91
2022-10-28T20:51:34.159Z,17.89
2022-10-28T20:54:01.901Z,17.95
2022-10-28T20:56:31.744Z,17.98
2022-10-28T20:58:58.638Z,17.92
2022-10-28T21:01:27.666Z,18.00
2022-10-28T21:03:59.508Z,17.94
2022-10-28T21:06:27.548Z,17.92
2022-10-28T21:08:54.816Z,17.90
2022-10-28T21:11:23.547Z,17.89
2022-10-28T21:13:58.491Z,17.92
2022-10-28T21:16:26.542Z,17.91
2022-10-28T21:18:53.413Z,17.97
2022-10-28T21:21:21.278Z,17.91
2022-10-28T21:23:48.122Z,17.91
2022-10-28T21:26:14.816Z,17.82
2022-10-28T21:28:41.643Z,17.95
2022-10-28T21:31:13.598Z,17.91
2022-10-28T21:33:41.517Z,17.95
2022-10-28T21:36:12.098Z,17.94
2022-10-28T21:38:39.576Z,17.95
2022-10-28T21:41:14.898Z,17.97
2022-10-28T21:43:43.899Z,17.98
2022-10-28T21:46:11.431Z,17.91
2022-10-28T21:48:38.300Z,17.89
2022-10-28T21:51:10.164Z,17.96
2022-10-28T21:53:40.377Z,17.93
2022-10-28T21:56:18.292Z,17.85
2022-10-28T21:58:49.965Z,17.99
2022-10-28T22:01:20.612Z,17.97
2022-10-28T22:03:47.628Z,18.04
2022-10-28T22:06:14.794Z,17.95
2022-10-28T22:08:41.742Z,17.90
2022-10-28T22:11:17.292Z,17.94
2022-10-28T22:13:44.210Z,17.93
2022-10-28T22:16:13.293Z,17.81
2022-10-28T22:18:40.407Z,17.88
2022-10-28T22:21:13.953Z,17.79
2022-10-28T22:23:40.844Z,17.78
2022-10-28T22:26:13.614Z,17.72
2022-10-28T22:28:40.786Z,17.70
2022-10-28T22:31:09.768Z,17.79
2022-10-28T22:33:36.934Z,17.82
2022-10-28T22:36:06.544Z,17.83
2022-10-28T22:38:33.487Z,17.84
2022-10-28T22:41:05.991Z,17.84
2022-10-28T22:43:32.954Z,17.89
2022-10-28T22:46:00.891Z,17.82
2022-10-28T22:48:28.024Z,17.87
2022-10-28T22:50:55.094Z,17.82
2022-10-28T22:53:22.523Z,17.90
2022-10-28T22:55:49.816Z,17.83
2022-10-28T22:58:16.795Z,17.76
2022-10-28T23:00:43.856Z,17.77
2022-10-28T23:03:11.167Z,17.82
2022-10-28T23:05:38.179Z,17.78
2022-10-28T23:08:05.153Z,17.66
2022-10-28T23:10:31.898Z,17.48
2022-10-28T23:13:00.822Z,17.63
2022-10-28T23:15:28.781Z,17.52
2022-10-28T23:17:56.206Z,17.48
2022-10-28T23:20:24.835Z,17.40
2022-10-28T23:22:56.306Z,17.29
2022-10-28T23:25:23.228Z,17.44
2022-10-28T23:27:49.927Z,17.41
2022-10-28T23:30:16.927Z,17.31
2022-10-28T23:32:43.650Z,17.25
2022-10-28T23:35:10.355Z,17.26
2022-10-28T23:37:37.415Z,17.17
2022-10-28T23:40:04.939Z,17.20
2022-10-28T23:42:31.922Z,17.15
2022-10-28T23:44:58.679Z,17.15
2022-10-28T23:47:25.330Z,17.07
2022-10-28T23:49:52.969Z,17.18
2022-10-28T23:52:19.689Z,17.10
2022-10-28T23:54:46.425Z,17.08
2022-10-28T23:57:13.231Z,17.08
2022-10-28T23:59:39.957Z,17.06
